首页
METAR-TAF:

METAR-TAF

机场 :

莫伊国际机场

蒙巴萨, 肯尼亚

纬度: 04-02S, 经度: 039-37E, 海拔: 57米

当前天气观测

该预报发布于2小时和49分钟前的18:00 UTC
风速8节,风向
温度 27°C
湿度 79%
气压 1015 hPa
能见度10公里或以上
少量云层高于2200英尺
多云层高于8000英尺

METAR: HKMO 061800Z 18008KT 9999 FEW022 BKN080 27/23 Q1015 NOSIG

时间: 23:49 (20:49 UTC)

预报

该预报发布于3小时和49分钟前的17:00 UTC
预报有效从06日的 18点(UTC)到 07日的 24点(UTC)
风速5节,风向南转西南
能见度10公里或以上
少量云层高于2200英尺
多云层高于8000英尺
短暂存在
从 07日的 00点(UTC)到 07日的 06点(UTC)
少量云层高于2000英尺, 积雨云.
多云层高于2100英尺
多云层高于8000英尺
小阵雨
成为
从 07日的 09点(UTC)到 07日的 12点(UTC)
风速15节,风向
散云层高于2500英尺
多云层高于8000英尺
成为
从 07日的 18点(UTC)到 07日的 21点(UTC)
风速5节,风向南转西南
散云层高于2200英尺

TAF: HKMO 061700Z 0618/0724 20005KT 9999 FEW022 BKN080 TEMPO 0700/0706 -SHRA FEW020CB BKN021 BKN080 BECMG 0709/0712 19015KT NSW SCT025 BKN080 BECMG 0718/0721 21005KT SCT022

超过4000个机场的气象观测和天气预报(METAR&TAF报告)。

可查询的气象台以黄色和红色小点在地图上表示。

将鼠标移到小点上方,可查看气象台名称。

然后点击查看天气观测和预报。

如需切换地图:点击带黑十字的绿色按钮放大地图;点击带横线的绿色按钮缩小地图;或者点击绿色箭头查看邻近地区的地图。


METAR-TAF: